Time;durP1;ratioP1;P1;durP2;ratioP2;P2;SDS_P1;SDS_P2;PMS_P1;PMS_P2;Temp;Humidity;BMP_temperature;BMP_pressure;BME280_temperature;BME280_humidity;BME280_pressure;Samples;Min_cycle;Max_cycle;Signal;HPM_P1;HPM_P2
2020/12/26 00:00:49;;;;;;;4.78;2.90;;;;;;;-1.05;73.13;97363.56;5002687;28;20046;-68
2020/12/26 00:03:15;;;;;;;5.03;3.20;;;;;;;-0.90;71.77;97371.56;4994102;28;20076;-68
2020/12/26 00:05:40;;;;;;;3.20;2.25;;;;;;;-0.91;73.84;97377.22;5002694;28;20073;-68
2020/12/26 00:08:06;;;;;;;6.35;2.80;;;;;;;-1.25;76.52;97377.88;4996599;28;20100;-69
2020/12/26 00:10:31;;;;;;;6.10;2.90;;;;;;;-1.23;76.35;97383.78;5000880;28;20048;-68
2020/12/26 00:12:57;;;;;;;4.50;2.88;;;;;;;-1.09;76.35;97384.81;4999489;28;20042;-68
2020/12/26 00:15:22;;;;;;;4.55;3.10;;;;;;;-0.96;75.48;97378.03;4993801;28;20780;-69
2020/12/26 00:17:47;;;;;;;5.03;2.90;;;;;;;-0.70;72.54;97377.91;4999600;28;20050;-68
2020/12/26 00:20:13;;;;;;;4.53;3.15;;;;;;;-0.60;70.78;97381.34;4995621;28;20056;-68
2020/12/26 00:22:38;;;;;;;8.10;2.90;;;;;;;-0.60;70.18;97375.97;5001472;28;20148;-68
2020/12/26 00:25:04;;;;;;;4.50;2.88;;;;;;;-0.52;69.44;97371.91;4997772;28;20041;-66
2020/12/26 00:27:30;;;;;;;4.38;2.75;;;;;;;-0.45;69.53;97368.91;4994427;28;20076;-67
2020/12/26 00:29:56;;;;;;;6.88;2.42;;;;;;;-0.47;69.65;97374.59;5002270;28;20554;-68
2020/12/26 00:32:22;;;;;;;4.07;2.60;;;;;;;-0.51;69.99;97373.50;4992637;28;20069;-67
2020/12/26 00:34:47;;;;;;;4.93;2.63;;;;;;;-0.50;69.60;97372.44;4997457;28;20665;-69
2020/12/26 00:37:19;;;;;;;3.22;2.38;;;;;;;-0.51;69.85;97375.41;4977269;28;20056;-67
2020/12/26 00:39:44;;;;;;;3.92;2.70;;;;;;;-0.44;70.25;97381.28;4982425;28;20514;-67
2020/12/26 00:42:10;;;;;;;3.55;2.60;;;;;;;-0.52;71.00;97377.28;4973569;28;20042;-66
2020/12/26 00:44:35;;;;;;;2.58;2.22;;;;;;;-0.51;71.84;97375.41;4982103;28;20049;-67
2020/12/26 00:47:01;;;;;;;7.35;3.95;;;;;;;-0.54;72.12;97375.94;4999279;28;20060;-68
2020/12/26 00:49:26;;;;;;;3.80;2.75;;;;;;;-0.70;72.33;97370.66;4989525;28;20068;-69
2020/12/26 00:51:52;;;;;;;4.97;2.80;;;;;;;-0.58;72.48;97383.78;4999220;28;20510;-68
2020/12/26 00:54:17;;;;;;;3.80;2.67;;;;;;;-0.55;71.55;97377.84;4994820;28;20041;-68
2020/12/26 00:56:42;;;;;;;4.07;2.58;;;;;;;-0.49;71.92;97375.91;5000659;28;20038;-69
2020/12/26 00:59:08;;;;;;;6.32;2.88;;;;;;;-0.50;71.97;97372.44;4994853;28;20510;-70
2020/12/26 01:01:33;;;;;;;5.00;2.83;;;;;;;-0.52;72.01;97371.09;4996937;28;20054;-70
2020/12/26 01:03:59;;;;;;;4.75;2.70;;;;;;;-0.65;72.28;97370.66;4999518;28;20080;-69
2020/12/26 01:06:24;;;;;;;4.40;3.00;;;;;;;-0.63;72.56;97373.84;4990199;28;20137;-67
2020/12/26 01:08:50;;;;;;;5.18;2.85;;;;;;;-0.70;72.69;97378.75;5000814;28;20041;-69
2020/12/26 01:11:15;;;;;;;4.07;2.75;;;;;;;-0.78;72.77;97388.16;4994569;28;20045;-68
2020/12/26 01:13:41;;;;;;;3.75;2.88;;;;;;;-0.82;72.82;97389.00;5000470;28;20037;-68
2020/12/26 01:16:10;;;;;;;3.92;2.65;;;;;;;-1.00;73.63;97385.06;4995695;28;20045;-67
2020/12/26 01:18:36;;;;;;;4.90;2.90;;;;;;;-1.03;73.46;97383.69;4988175;28;20820;-68
2020/12/26 01:21:04;;;;;;;5.35;3.08;;;;;;;-1.13;73.96;97386.44;4982761;28;20052;-68
2020/12/26 01:23:30;;;;;;;4.93;3.35;;;;;;;-1.19;74.23;97377.59;4995798;28;20050;-68
2020/12/26 01:25:55;;;;;;;5.38;3.15;;;;;;;-1.44;75.13;97378.47;5000177;28;20050;-68
2020/12/26 01:28:21;;;;;;;4.25;3.17;;;;;;;-1.61;75.81;97375.25;4991044;28;20056;-69
2020/12/26 01:30:47;;;;;;;5.20;3.03;;;;;;;-1.81;76.65;97382.25;5000499;28;20136;-68
2020/12/26 01:33:12;;;;;;;5.53;2.75;;;;;;;-2.01;77.40;97376.91;4994909;28;20042;-67
2020/12/26 01:35:37;;;;;;;4.07;2.90;;;;;;;-2.24;78.23;97375.56;5000007;28;20103;-67
2020/12/26 01:38:03;;;;;;;4.60;2.85;;;;;;;-2.42;79.28;97380.34;4994674;28;20469;-67
2020/12/26 01:40:28;;;;;;;5.22;3.13;;;;;;;-2.51;80.20;97381.94;5011627;28;20104;-67
2020/12/26 01:42:54;;;;;;;4.68;2.95;;;;;;;-2.50;80.80;97389.72;4999190;28;20056;-68
2020/12/26 01:45:19;;;;;;;4.45;3.28;;;;;;;-2.60;80.91;97392.38;4992391;28;20053;-67
2020/12/26 01:47:45;;;;;;;7.15;3.17;;;;;;;-2.67;81.34;97393.72;4997004;28;20081;-68
2020/12/26 01:50:11;;;;;;;6.43;3.42;;;;;;;-2.79;81.52;97397.44;4992812;28;20073;-66
2020/12/26 01:52:36;;;;;;;5.22;3.50;;;;;;;-2.96;80.73;97392.25;4996762;28;20097;-67
2020/12/26 01:55:02;;;;;;;5.13;3.05;;;;;;;-3.05;81.05;97396.53;4998343;28;20399;-66
2020/12/26 01:57:34;;;;;;;6.93;3.00;;;;;;;-3.03;82.53;97406.97;4996247;28;20132;-67
2020/12/26 02:00:02;;;;;;;5.15;3.67;;;;;;;-2.93;82.60;97407.84;5000167;28;20120;-66
2020/12/26 02:02:28;;;;;;;5.88;3.47;;;;;;;-2.87;83.32;97400.63;5012703;28;20052;-65
2020/12/26 02:04:53;;;;;;;4.93;3.25;;;;;;;-2.89;82.31;97406.22;4998062;28;20050;-66
2020/12/26 02:07:19;;;;;;;5.82;3.28;;;;;;;-3.02;81.70;97412.09;4988228;28;20041;-66
2020/12/26 02:09:45;;;;;;;5.95;3.45;;;;;;;-3.13;81.90;97411.22;5000557;28;20038;-66
2020/12/26 02:12:10;;;;;;;4.82;3.45;;;;;;;-3.08;83.47;97407.75;4993700;28;20052;-64
2020/12/26 02:14:44;;;;;;;5.95;3.80;;;;;;;-3.02;83.60;97416.66;5000090;28;20049;-65
2020/12/26 02:17:09;;;;;;;4.80;3.35;;;;;;;-3.06;83.42;97421.72;4995832;28;20053;-66
2020/12/26 02:19:34;;;;;;;4.85;3.22;;;;;;;-3.08;83.70;97421.16;4997601;28;20137;-65
2020/12/26 02:22:00;;;;;;;5.85;3.58;;;;;;;-3.09;83.84;97424.91;4999064;28;20064;-65
2020/12/26 02:24:25;;;;;;;5.22;3.10;;;;;;;-3.02;83.75;97430.06;4994991;28;20112;-65
2020/12/26 02:26:50;;;;;;;6.88;3.38;;;;;;;-3.05;83.85;97423.31;5011341;28;20048;-65
2020/12/26 02:29:16;;;;;;;5.53;3.70;;;;;;;-3.11;83.77;97421.69;5002166;28;20625;-65
2020/12/26 02:31:41;;;;;;;5.32;3.53;;;;;;;-3.02;84.67;97435.41;5000493;28;20046;-66
2020/12/26 02:34:07;;;;;;;6.18;3.60;;;;;;;-3.03;84.01;97434.59;4996514;28;20038;-65
2020/12/26 02:36:35;;;;;;;5.55;3.60;;;;;;;-3.09;84.45;97439.13;5000074;28;20522;-65
2020/12/26 02:39:01;;;;;;;6.30;3.88;;;;;;;-3.15;84.73;97433.97;5000534;28;20495;-65
2020/12/26 02:41:26;;;;;;;5.18;3.33;;;;;;;-3.30;84.23;97440.06;4993921;28;20042;-64
2020/12/26 02:43:52;;;;;;;5.95;3.67;;;;;;;-3.38;84.37;97438.69;5005450;28;20118;-65
2020/12/26 02:46:17;;;;;;;5.80;3.65;;;;;;;-3.41;85.16;97447.22;5002642;28;20054;-65
2020/12/26 02:48:43;;;;;;;5.15;3.50;;;;;;;-3.40;85.08;97442.66;5008707;28;20042;-65
2020/12/26 02:51:08;;;;;;;5.72;3.80;;;;;;;-3.41;85.50;97447.22;4995617;28;20096;-65
2020/12/26 02:53:33;;;;;;;6.13;3.95;;;;;;;-3.37;85.97;97445.63;5000963;28;20084;-66
2020/12/26 02:55:59;;;;;;;5.35;3.53;;;;;;;-3.48;85.08;97441.28;5006951;28;20399;-66
2020/12/26 02:58:24;;;;;;;5.72;3.85;;;;;;;-3.67;83.67;97448.94;4997822;28;20450;-66
2020/12/26 03:00:50;;;;;;;4.82;3.13;;;;;;;-3.75;84.09;97458.22;5000286;28;20050;-66
2020/12/26 03:03:18;;;;;;;5.05;3.55;;;;;;;-3.74;85.07;97464.41;4993244;28;20038;-65
2020/12/26 03:05:44;;;;;;;6.03;4.07;;;;;;;-3.57;86.78;97472.28;5000011;28;20100;-65
2020/12/26 03:08:09;;;;;;;6.45;3.78;;;;;;;-3.48;86.84;97466.19;4994785;28;20640;-65
2020/12/26 03:10:35;;;;;;;9.02;4.75;;;;;;;-3.47;86.23;97467.03;4998092;28;20060;-66
2020/12/26 03:13:00;;;;;;;6.32;3.55;;;;;;;-3.67;84.83;97465.78;4999806;28;20045;-66
2020/12/26 03:15:26;;;;;;;7.32;4.10;;;;;;;-3.73;84.93;97479.38;4993466;28;20042;-66
2020/12/26 03:17:51;;;;;;;5.70;3.45;;;;;;;-3.67;86.18;97468.47;5000151;28;20124;-66
2020/12/26 03:20:17;;;;;;;7.32;3.90;;;;;;;-3.58;86.56;97474.16;4993282;28;20511;-67
2020/12/26 03:22:42;;;;;;;8.07;3.90;;;;;;;-3.61;86.45;97469.31;4998830;28;20132;-66
2020/12/26 03:25:08;;;;;;;5.43;3.45;;;;;;;-3.81;85.69;97469.97;4997309;28;20041;-66
2020/12/26 03:27:33;;;;;;;8.23;4.13;;;;;;;-3.81;85.93;97467.28;5003100;28;20042;-66
2020/12/26 03:29:59;;;;;;;5.32;3.63;;;;;;;-3.73;86.61;97472.16;4998902;28;20143;-65
2020/12/26 03:32:24;;;;;;;9.48;3.63;;;;;;;-3.77;86.82;97473.75;4997606;28;20050;-66
2020/12/26 03:34:50;;;;;;;10.05;4.30;;;;;;;-3.88;86.08;97472.84;5002434;28;20046;-66
2020/12/26 03:37:15;;;;;;;5.00;3.20;;;;;;;-4.18;84.51;97475.22;4999362;28;20041;-66
2020/12/26 03:39:41;;;;;;;6.97;3.65;;;;;;;-4.40;86.15;97472.59;5003242;28;20046;-66
2020/12/26 03:42:09;;;;;;;6.05;3.85;;;;;;;-4.47;86.49;97468.25;5011264;28;20049;-67
2020/12/26 03:44:35;;;;;;;7.13;4.28;;;;;;;-4.54;87.60;97474.84;5021625;28;20099;-66
2020/12/26 03:47:01;;;;;;;11.13;4.75;;;;;;;-4.64;88.09;97480.91;5023203;28;20052;-66
2020/12/26 03:49:27;;;;;;;6.22;4.18;;;;;;;-4.65;88.16;97488.09;4999021;28;20921;-66
2020/12/26 03:51:53;;;;;;;7.70;4.60;;;;;;;-4.67;87.98;97486.72;4996181;28;20049;-66
2020/12/26 03:54:21;;;;;;;6.40;4.00;;;;;;;-4.73;88.29;97487.75;4988325;28;20049;-66
2020/12/26 03:56:48;;;;;;;5.65;3.90;;;;;;;-4.88;87.14;97494.50;5002367;28;20080;-65
2020/12/26 03:59:14;;;;;;;6.53;3.92;;;;;;;-4.92;86.98;97492.56;4999117;28;20457;-66
2020/12/26 04:01:40;;;;;;;7.30;4.22;;;;;;;-4.96;88.25;97492.25;5003117;28;20041;-65
2020/12/26 04:04:05;;;;;;;7.07;4.00;;;;;;;-5.00;88.99;97499.94;4991259;28;20515;-64
2020/12/26 04:06:31;;;;;;;8.07;4.80;;;;;;;-4.93;89.06;97509.63;5002806;28;20042;-65
2020/12/26 04:08:57;;;;;;;6.30;4.53;;;;;;;-4.72;90.06;97516.88;5002990;28;20134;-64
2020/12/26 04:11:23;;;;;;;8.50;4.20;;;;;;;-4.55;90.31;97514.16;4995324;28;20058;-64
2020/12/26 04:13:49;;;;;;;8.73;4.57;;;;;;;-4.51;90.08;97519.81;5016362;28;20107;-63
2020/12/26 04:16:15;;;;;;;7.65;4.25;;;;;;;-4.51;90.58;97512.59;4997634;28;20038;-65
2020/12/26 04:18:41;;;;;;;9.55;4.35;;;;;;;-4.52;89.59;97515.50;5002454;28;20056;-64
2020/12/26 04:21:09;;;;;;;5.53;3.90;;;;;;;-4.62;89.54;97508.19;4995556;28;20145;-66
2020/12/26 04:23:35;;;;;;;9.63;4.20;;;;;;;-4.69;89.30;97507.56;4995860;28;20050;-64
2020/12/26 04:26:01;;;;;;;5.53;3.58;;;;;;;-4.66;89.71;97512.41;4999376;28;20057;-65
2020/12/26 04:28:27;;;;;;;6.05;3.90;;;;;;;-4.55;89.66;97511.47;4989806;28;20057;-66
2020/12/26 04:30:53;;;;;;;7.97;4.93;;;;;;;-4.45;89.72;97513.44;5001605;28;20054;-66
2020/12/26 04:33:18;;;;;;;6.47;4.40;;;;;;;-4.35;89.80;97518.94;4995063;28;20057;-65
2020/12/26 04:35:44;;;;;;;8.38;4.50;;;;;;;-4.30;89.04;97523.53;4999640;28;20041;-65
2020/12/26 04:38:09;;;;;;;6.65;4.13;;;;;;;-4.33;88.62;97526.72;4982918;28;20077;-65
2020/12/26 04:40:35;;;;;;;6.57;4.15;;;;;;;-4.39;89.18;97525.84;4994310;28;20042;-65
2020/12/26 04:43:01;;;;;;;6.40;4.32;;;;;;;-4.43;89.11;97524.72;4995970;28;20084;-65
2020/12/26 04:45:27;;;;;;;7.78;4.38;;;;;;;-4.40;89.39;97532.25;4988354;28;20530;-67
2020/12/26 04:48:02;;;;;;;6.32;4.18;;;;;;;-4.33;89.50;97530.19;4992270;28;20049;-65
2020/12/26 04:50:30;;;;;;;8.23;4.75;;;;;;;-4.33;88.54;97529.38;4999419;28;20204;-65
2020/12/26 04:53:01;;;;;;;7.50;4.28;;;;;;;-4.34;88.04;97535.78;4985890;28;20047;-66
2020/12/26 04:55:29;;;;;;;6.00;4.05;;;;;;;-4.38;88.67;97535.47;4994065;28;20046;-66
2020/12/26 04:58:09;;;;;;;9.80;4.60;;;;;;;-4.32;88.69;97544.34;4998555;28;20049;-66
2020/12/26 05:00:35;;;;;;;7.93;4.80;;;;;;;-4.30;88.41;97545.75;4993361;28;20049;-64
2020/12/26 05:03:09;;;;;;;10.57;5.93;;;;;;;-4.42;88.62;97548.53;5000213;28;20049;-63
2020/12/26 05:05:37;;;;;;;9.10;4.80;;;;;;;-4.51;88.75;97559.91;4984833;28;20065;-65
2020/12/26 05:08:10;;;;;;;7.85;5.00;;;;;;;-4.62;88.77;97556.31;4997261;28;20037;-65
2020/12/26 05:10:36;;;;;;;11.23;5.18;;;;;;;-4.73;89.34;97546.53;5015230;28;20140;-64
2020/12/26 05:13:05;;;;;;;9.15;4.68;;;;;;;-4.71;89.31;97549.78;5019593;28;20034;-65
2020/12/26 05:15:31;;;;;;;7.25;5.25;;;;;;;-4.71;89.31;97555.13;4998190;28;20042;-65
2020/12/26 05:17:57;;;;;;;7.93;4.25;;;;;;;-4.72;89.58;97554.28;5000773;28;20487;-65
2020/12/26 05:20:26;;;;;;;9.38;5.05;;;;;;;-4.85;90.21;97562.66;4992859;28;20053;-64
2020/12/26 05:23:11;;;;;;;11.02;4.85;;;;;;;-4.93;90.34;97555.91;5000181;28;20045;-65
2020/12/26 05:25:44;;;;;;;9.40;4.95;;;;;;;-4.93;90.06;97555.91;5001157;28;20092;-68
2020/12/26 05:28:11;;;;;;;8.10;5.18;;;;;;;-5.14;89.40;97560.13;4995530;28;20111;-66
2020/12/26 05:30:40;;;;;;;8.60;4.90;;;;;;;-5.27;90.44;97555.13;4998295;28;20069;-64
2020/12/26 05:33:07;;;;;;;7.55;4.88;;;;;;;-5.39;91.40;97550.66;4994568;28;20445;-66
2020/12/26 05:35:38;;;;;;;10.30;5.32;;;;;;;-5.54;91.65;97550.41;5000745;28;20096;-65
2020/12/26 05:38:22;;;;;;;8.35;4.95;;;;;;;-5.61;92.24;97557.78;4992265;28;20045;-66
2020/12/26 05:40:52;;;;;;;10.43;5.38;;;;;;;-5.61;92.25;97563.13;5001154;28;20057;-64
2020/12/26 05:43:19;;;;;;;8.20;5.05;;;;;;;-5.64;91.70;97560.91;4992319;28;20045;-64
2020/12/26 05:45:46;;;;;;;10.07;5.13;;;;;;;-5.31;92.40;97567.31;4997872;28;20041;-65
2020/12/26 05:48:17;;;;;;;11.95;5.57;;;;;;;-5.15;92.74;97569.16;4996272;28;20066;-66
2020/12/26 05:50:43;;;;;;;8.88;4.85;;;;;;;-5.04;92.50;97567.47;4997799;28;20491;-66
2020/12/26 05:53:12;;;;;;;7.68;4.65;;;;;;;-4.95;92.11;97576.72;4990876;28;20041;-66
2020/12/26 05:55:46;;;;;;;10.70;5.50;;;;;;;-5.00;91.70;97580.09;5000636;28;20037;-66
2020/12/26 05:58:12;;;;;;;8.77;4.82;;;;;;;-4.91;91.68;97569.81;4994913;28;20069;-67
2020/12/26 06:00:42;;;;;;;8.60;5.43;;;;;;;-5.19;91.05;97584.88;4998848;28;20042;-66
2020/12/26 06:03:19;;;;;;;;;;;;;;;-5.36;90.64;97580.63;5006725;28;20129;-67
2020/12/26 06:05:49;;;;;;;8.82;5.03;;;;;;;-5.55;90.53;97580.03;5024413;28;19913;-65
2020/12/26 06:08:16;;;;;;;10.15;5.85;;;;;;;-5.70;91.17;97575.25;5018814;28;20037;-68
2020/12/26 06:10:49;;;;;;;7.78;5.05;;;;;;;-5.77;91.22;97575.38;5002419;28;20103;-65
2020/12/26 06:13:16;;;;;;;11.45;5.90;;;;;;;-5.81;92.40;97580.38;4995057;28;20045;-64
2020/12/26 06:15:48;;;;;;;11.38;5.75;;;;;;;-5.87;93.02;97588.53;4999869;28;20073;-63
2020/12/26 06:18:16;;;;;;;8.45;6.03;;;;;;;-5.84;93.28;97593.41;4987287;28;20042;-64
2020/12/26 06:20:42;;;;;;;10.25;5.60;;;;;;;-5.95;93.25;97601.19;4999104;28;20045;-63
2020/12/26 06:23:14;;;;;;;11.63;6.35;;;;;;;-5.70;93.27;97604.59;4994673;28;20127;-64
2020/12/26 06:25:42;;;;;;;13.88;7.70;;;;;;;-5.48;93.27;97602.84;4998399;28;20069;-64
2020/12/26 06:28:20;;;;;;;18.92;8.40;;;;;;;-5.12;93.68;97602.63;4989741;28;20050;-65
2020/12/26 06:30:46;;;;;;;22.45;10.55;;;;;;;-4.82;93.39;97603.06;5000824;28;20049;-65
2020/12/26 06:33:11;;;;;;;10.70;6.15;;;;;;;-4.84;92.15;97599.03;4998644;28;20042;-64
2020/12/26 06:35:41;;;;;;;11.43;5.45;;;;;;;-5.10;91.29;97597.84;5007432;28;20049;-64
2020/12/26 06:38:27;;;;;;;12.45;5.68;;;;;;;-5.44;90.95;97604.00;4994723;28;20129;-64
2020/12/26 06:41:02;;;;;;;12.18;6.15;;;;;;;-5.50;91.56;97604.94;4999728;28;20046;-64
2020/12/26 06:43:39;;;;;;;9.95;5.78;;;;;;;-5.44;92.20;97603.16;4992662;28;20701;-63
2020/12/26 06:46:28;;;;;;;8.25;5.65;;;;;;;-5.46;92.02;97605.25;4994967;28;20068;-64
2020/12/26 06:48:55;;;;;;;10.50;5.57;;;;;;;-5.23;92.63;97613.13;4998174;28;20049;-64
2020/12/26 06:51:29;;;;;;;14.95;5.88;;;;;;;-4.84;92.04;97613.22;4995630;28;20041;-62
2020/12/26 06:53:56;;;;;;;9.93;5.28;;;;;;;-4.66;91.15;97614.00;5000495;28;20072;-66
2020/12/26 06:59:00;;;;;;;10.32;5.15;;;;;;;-4.51;89.88;97610.72;4998850;28;20116;-63
2020/12/26 07:01:27;;;;;;;8.40;5.20;;;;;;;-4.53;89.24;97605.63;4993945;28;20471;-63
2020/12/26 07:04:16;;;;;;;8.63;5.55;;;;;;;-4.76;87.71;97611.19;4993966;28;20038;-64
2020/12/26 07:06:56;;;;;;;10.95;5.63;;;;;;;-4.61;89.00;97614.03;4999320;28;20037;-66
2020/12/26 07:09:37;;;;;;;6.88;4.85;;;;;;;-4.46;89.95;97605.44;4983531;28;20038;-64
2020/12/26 07:12:08;;;;;;;11.23;5.20;;;;;;;-4.31;90.68;97610.19;4974041;28;20092;-66
2020/12/26 07:14:35;;;;;;;10.27;5.47;;;;;;;-4.39;89.48;97606.06;4997688;28;20053;-64
2020/12/26 07:17:25;;;;;;;11.52;5.13;;;;;;;-4.44;88.59;97606.81;5009650;28;20113;-63
2020/12/26 07:19:52;;;;;;;8.65;4.82;;;;;;;-4.45;88.72;97615.91;4981244;28;20038;-64
2020/12/26 07:22:28;;;;;;;16.10;5.47;;;;;;;-4.25;89.18;97607.31;4993065;28;20470;-64
2020/12/26 07:24:56;;;;;;;8.15;4.63;;;;;;;-4.01;89.40;97609.75;4998270;28;20034;-64
2020/12/26 07:27:25;;;;;;;8.88;5.10;;;;;;;-3.60;88.25;97614.72;4989773;28;20080;-64
2020/12/26 07:30:12;;;;;;;8.95;5.43;;;;;;;-3.46;87.18;97615.94;4997680;28;20049;-63
2020/12/26 07:32:42;;;;;;;11.25;5.60;;;;;;;-3.39;87.54;97615.72;4998897;28;20046;-63
2020/12/26 07:35:19;;;;;;;10.82;6.20;;;;;;;-3.34;87.00;97623.81;4985773;28;20049;-64
2020/12/26 07:37:54;;;;;;;13.30;6.93;;;;;;;-3.20;86.85;97616.97;4999637;28;20042;-64
2020/12/26 07:40:24;;;;;;;12.52;8.70;;;;;;;-3.48;86.39;97626.88;4992519;28;20474;-66
2020/12/26 07:42:50;;;;;;;10.02;5.13;;;;;;;-3.46;86.94;97619.44;4999256;28;20049;-65
2020/12/26 07:45:21;;;;;;;9.70;6.18;;;;;;;-3.56;88.02;97622.00;4992074;28;20038;-65
2020/12/26 07:47:48;;;;;;;14.23;8.10;;;;;;;-3.51;88.23;97624.75;4999594;28;20070;-66
2020/12/26 07:50:15;;;;;;;9.35;5.45;;;;;;;-3.34;87.44;97629.19;4984994;28;20416;-65
2020/12/26 07:52:45;;;;;;;14.90;6.57;;;;;;;-3.50;87.80;97633.56;4998351;28;20128;-65
2020/12/26 07:55:11;;;;;;;29.08;13.77;;;;;;;-3.23;88.21;97624.72;4995075;28;20127;-65
2020/12/26 07:57:37;;;;;;;12.48;5.85;;;;;;;-2.60;85.76;97641.81;4997807;28;20046;-66
2020/12/26 08:00:03;;;;;;;10.55;5.40;;;;;;;-2.08;82.43;97631.38;4994506;28;20093;-67
2020/12/26 08:02:28;;;;;;;11.32;5.85;;;;;;;-1.03;80.73;97630.28;4996183;28;20053;-65
2020/12/26 08:04:54;;;;;;;10.23;5.57;;;;;;;0.10;76.03;97624.69;4995794;28;20038;-65
2020/12/26 08:07:19;;;;;;;11.02;5.45;;;;;;;0.86;72.68;97620.75;4994378;28;20056;-66
2020/12/26 08:09:52;;;;;;;9.38;5.18;;;;;;;0.63;71.66;97614.19;5002058;28;20069;-66
2020/12/26 08:12:19;;;;;;;11.43;5.38;;;;;;;0.18;72.38;97622.22;4993423;28;20045;-65
2020/12/26 08:14:56;;;;;;;11.02;6.43;;;;;;;-0.29;75.08;97619.97;5002370;28;20104;-65
2020/12/26 08:17:22;;;;;;;10.18;5.50;;;;;;;-0.87;77.65;97629.19;4997559;28;20073;-65
2020/12/26 08:19:48;;;;;;;11.43;5.95;;;;;;;-1.24;79.29;97618.69;4996306;28;20050;-65
2020/12/26 08:22:13;;;;;;;9.90;4.93;;;;;;;-1.14;78.58;97632.16;4997431;28;20041;-65
2020/12/26 08:24:39;;;;;;;8.75;4.63;;;;;;;-0.87;78.19;97631.88;5001190;28;20462;-66
2020/12/26 08:27:05;;;;;;;9.77;5.25;;;;;;;-0.71;76.33;97638.06;4996003;28;20052;-66
2020/12/26 08:29:32;;;;;;;13.25;5.20;;;;;;;-0.70;76.72;97636.19;5002325;28;20045;-66
2020/12/26 08:32:07;;;;;;;11.85;5.50;;;;;;;-0.69;77.54;97635.91;5003028;28;20049;-66
2020/12/26 08:35:05;;;;;;;8.68;5.00;;;;;;;-0.51;76.88;97639.13;5000359;28;20048;-66
2020/12/26 08:37:38;;;;;;;9.48;4.70;;;;;;;-0.45;77.28;97638.84;4996536;28;20050;-66
2020/12/26 08:40:09;;;;;;;9.27;4.68;;;;;;;-0.52;77.15;97643.72;4997628;28;20192;-66
2020/12/26 08:42:36;;;;;;;10.32;5.18;;;;;;;-1.02;77.83;97651.53;5002878;28;20049;-66
2020/12/26 08:45:24;;;;;;;7.75;5.18;;;;;;;-1.19;79.08;97654.47;4998187;28;20096;-68
2020/12/26 08:47:50;;;;;;;11.85;6.05;;;;;;;-1.65;81.57;97651.69;5001447;28;20042;-66
2020/12/26 08:50:15;;;;;;;14.65;6.00;;;;;;;-2.22;84.10;97653.31;4992594;28;20052;-68
2020/12/26 08:52:43;;;;;;;11.25;6.50;;;;;;;-2.16;84.47;97652.28;5002287;28;20375;-67
2020/12/26 08:55:09;;;;;;;12.70;7.38;;;;;;;-2.50;85.17;97646.47;4993876;28;20038;-66
2020/12/26 08:57:35;;;;;;;61.17;34.88;;;;;;;-2.74;86.36;97644.16;4998605;28;20063;-66
2020/12/26 09:00:19;;;;;;;17.35;10.00;;;;;;;-2.50;86.92;97647.25;5016702;28;20054;-66
2020/12/26 09:02:52;;;;;;;9.75;6.20;;;;;;;-2.31;85.58;97647.63;4998536;28;20038;-67
2020/12/26 09:05:28;;;;;;;14.82;8.30;;;;;;;-2.59;86.40;97645.28;4988868;28;20046;-67
2020/12/26 09:08:09;;;;;;;13.23;8.35;;;;;;;-2.66;86.67;97650.09;5001989;28;20038;-67
2020/12/26 09:10:36;;;;;;;14.60;8.30;;;;;;;-2.64;86.77;97654.13;4999647;28;20034;-65
2020/12/26 09:13:07;;;;;;;12.48;7.43;;;;;;;-2.79;86.61;97646.78;5000589;28;20060;-66
2020/12/26 09:15:51;;;;;;;12.60;7.10;;;;;;;-2.82;87.42;97649.97;5015852;28;20124;-65
2020/12/26 09:18:21;;;;;;;17.65;8.68;;;;;;;-2.63;87.58;97644.19;4989720;28;20092;-65
2020/12/26 09:20:48;;;;;;;19.63;9.07;;;;;;;-2.55;86.21;97630.31;4999726;28;20121;-65
2020/12/26 09:23:13;;;;;;;14.30;8.07;;;;;;;-2.08;85.28;97629.50;4988668;28;20038;-66
2020/12/26 09:25:38;;;;;;;13.30;7.68;;;;;;;-1.38;81.44;97629.97;4997793;28;20100;-64
2020/12/26 09:28:04;;;;;;;14.18;7.13;;;;;;;-0.47;80.30;97621.34;4996919;28;20140;-64
2020/12/26 09:30:30;;;;;;;14.90;6.70;;;;;;;0.63;75.78;97614.19;5001965;28;20042;-66
2020/12/26 09:32:56;;;;;;;14.40;6.35;;;;;;;2.12;70.01;97612.00;5001240;28;20092;-64
2020/12/26 09:35:21;;;;;;;9.45;5.82;;;;;;;1.72;70.06;97609.47;4992351;28;20645;-66
2020/12/26 09:37:54;;;;;;;13.00;5.30;;;;;;;1.74;69.79;97612.69;5000298;28;20789;-66
2020/12/26 09:40:26;;;;;;;13.57;7.03;;;;;;;3.01;65.67;97600.47;4991748;28;20064;-67
2020/12/26 09:42:52;;;;;;;9.63;5.05;;;;;;;4.19;62.10;97609.16;4981484;28;20052;-67
2020/12/26 09:45:18;;;;;;;8.90;4.68;;;;;;;2.76;64.31;97609.78;5006787;28;20142;-67
2020/12/26 09:47:43;;;;;;;9.82;4.63;;;;;;;4.07;60.71;97606.97;5010263;28;20080;-65
2020/12/26 09:50:09;;;;;;;6.47;4.32;;;;;;;3.76;62.20;97606.75;4995462;28;20053;-66
2020/12/26 09:52:34;;;;;;;8.73;4.05;;;;;;;3.67;62.15;97603.13;4995112;28;20046;-66
2020/12/26 09:55:00;;;;;;;11.30;4.03;;;;;;;3.55;63.30;97599.00;4987591;28;20144;-65
2020/12/26 09:57:25;;;;;;;10.23;4.15;;;;;;;3.12;63.70;97591.09;4991985;28;20725;-67
2020/12/26 09:59:51;;;;;;;16.73;8.88;;;;;;;3.32;63.75;97591.84;5001012;28;20053;-66
2020/12/26 10:02:16;;;;;;;15.32;10.32;;;;;;;3.78;61.60;97591.00;4997624;28;20046;-67
2020/12/26 10:04:41;;;;;;;13.48;7.35;;;;;;;4.25;61.19;97586.28;5003640;28;20465;-68
2020/12/26 10:07:07;;;;;;;7.55;5.05;;;;;;;4.95;59.59;97578.72;4997818;28;20132;-67
2020/12/26 10:09:32;;;;;;;6.38;4.85;;;;;;;5.72;55.25;97583.00;5001480;28;20046;-66
2020/12/26 10:11:57;;;;;;;9.05;4.10;;;;;;;4.43;58.28;97579.13;5003238;28;20506;-67
2020/12/26 10:14:23;;;;;;;5.57;3.97;;;;;;;4.22;60.41;97576.03;5001230;28;20368;-66
2020/12/26 10:16:48;;;;;;;5.75;4.20;;;;;;;5.50;55.94;97574.94;5003895;28;20049;-66
2020/12/26 10:19:14;;;;;;;6.18;3.50;;;;;;;6.24;53.26;97576.19;4997734;28;20052;-67
2020/12/26 10:21:39;;;;;;;4.10;2.85;;;;;;;6.69;50.95;97575.94;5001434;28;20058;-66
2020/12/26 10:24:04;;;;;;;5.00;3.03;;;;;;;7.17;49.25;97574.94;4992687;28;20129;-66
2020/12/26 10:26:30;;;;;;;3.88;2.78;;;;;;;6.32;52.36;97567.25;5001060;28;20147;-66
2020/12/26 10:28:55;;;;;;;5.65;3.40;;;;;;;5.97;52.90;97572.59;4997610;28;20510;-66
2020/12/26 10:31:27;;;;;;;4.68;3.25;;;;;;;5.57;54.07;97571.78;4994832;28;20526;-67
2020/12/26 10:33:53;;;;;;;6.70;2.90;;;;;;;5.46;54.20;97576.66;5000348;28;20132;-67
2020/12/26 10:36:18;;;;;;;5.03;3.50;;;;;;;5.49;54.22;97574.13;4996656;28;20133;-66
2020/12/26 10:38:44;;;;;;;6.22;3.38;;;;;;;5.73;53.96;97567.53;5002073;28;20042;-67
2020/12/26 10:41:09;;;;;;;7.03;3.42;;;;;;;5.46;54.33;97558.44;4995892;28;20050;-67
2020/12/26 10:43:34;;;;;;;7.28;3.47;;;;;;;5.28;54.54;97560.25;5002976;28;20037;-69
2020/12/26 10:46:00;;;;;;;6.03;3.53;;;;;;;3.79;59.46;97558.16;5012957;28;20042;-68
2020/12/26 10:48:25;;;;;;;5.88;3.75;;;;;;;4.53;60.16;97561.78;5000034;28;20045;-66
2020/12/26 10:50:50;;;;;;;5.80;3.90;;;;;;;5.63;53.36;97563.16;5002735;28;20042;-66
2020/12/26 10:53:16;;;;;;;6.10;3.47;;;;;;;6.19;52.49;97563.53;4995497;28;20042;-66
2020/12/26 10:55:41;;;;;;;6.88;3.33;;;;;;;6.25;52.04;97569.66;4996461;28;20066;-65
2020/12/26 10:58:07;;;;;;;4.88;3.17;;;;;;;5.91;52.35;97544.72;4994786;28;20049;-66
2020/12/26 11:00:32;;;;;;;5.53;2.75;;;;;;;5.65;52.99;97546.53;5000211;28;20581;-67
2020/12/26 11:02:57;;;;;;;6.38;3.35;;;;;;;5.13;53.48;97549.78;5000055;28;20141;-67
2020/12/26 11:05:23;;;;;;;5.35;3.33;;;;;;;4.55;55.81;97552.22;4995142;28;20473;-67
2020/12/26 11:07:49;;;;;;;4.65;3.00;;;;;;;4.67;55.43;97551.69;4999441;28;20087;-67
2020/12/26 11:10:14;;;;;;;6.95;3.20;;;;;;;4.54;57.10;97550.63;4993778;28;20141;-65
2020/12/26 11:12:40;;;;;;;5.93;3.63;;;;;;;5.27;54.06;97549.72;5000104;28;20579;-65
2020/12/26 11:15:05;;;;;;;5.90;3.58;;;;;;;4.85;55.70;97549.13;4995898;28;20042;-67
2020/12/26 11:17:30;;;;;;;6.38;3.20;;;;;;;4.23;55.63;97553.22;4997464;28;20124;-66
2020/12/26 11:19:56;;;;;;;9.40;3.40;;;;;;;3.61;59.46;97553.66;4994463;28;20050;-67
2020/12/26 11:22:21;;;;;;;7.40;3.30;;;;;;;4.17;59.34;97549.00;4986566;28;20321;-64
2020/12/26 11:24:46;;;;;;;6.82;3.17;;;;;;;5.22;54.10;97544.41;4999114;28;20115;-66
2020/12/26 11:27:12;;;;;;;10.05;3.83;;;;;;;5.90;53.49;97540.38;4986288;28;20042;-66
2020/12/26 11:29:38;;;;;;;6.03;3.15;;;;;;;6.44;51.75;97532.03;4996076;28;20563;-66
2020/12/26 11:32:05;;;;;;;5.35;2.97;;;;;;;6.63;49.21;97523.56;4997330;28;20046;-67
2020/12/26 11:34:30;;;;;;;5.25;3.08;;;;;;;7.21;48.43;97515.16;5004746;28;20049;-65
2020/12/26 11:36:55;;;;;;;4.55;2.90;;;;;;;8.09;45.69;97516.41;5009558;28;20106;-66
2020/12/26 11:39:21;;;;;;;5.63;3.17;;;;;;;8.44;46.26;97518.91;4992001;28;20053;-65